createdAt,value
2022-11-12T00:01:07.029Z,88.06
2022-11-12T00:03:34.258Z,87.71
2022-11-12T00:06:01.381Z,88.20
2022-11-12T00:08:28.817Z,88.08
2022-11-12T00:10:55.984Z,88.69
2022-11-12T00:13:22.943Z,88.39
2022-11-12T00:15:50.161Z,88.44
2022-11-12T00:18:17.261Z,87.97
2022-11-12T00:20:45.022Z,87.21
2022-11-12T00:23:12.082Z,87.83
2022-11-12T00:25:39.457Z,88.96
2022-11-12T00:28:10.578Z,88.70
2022-11-12T00:30:41.032Z,88.60
2022-11-12T00:33:08.458Z,89.17
2022-11-12T00:35:35.757Z,89.48
2022-11-12T00:38:03.101Z,88.76
2022-11-12T00:40:30.291Z,88.43
2022-11-12T00:42:57.321Z,87.94
2022-11-12T00:45:24.717Z,88.05
2022-11-12T00:47:56.808Z,88.44
2022-11-12T00:50:24.945Z,88.98
2022-11-12T00:52:53.625Z,88.80
2022-11-12T00:55:20.732Z,88.26
2022-11-12T00:57:47.817Z,88.11
2022-11-12T01:00:18.982Z,88.36
2022-11-12T01:02:50.745Z,88.65
2022-11-12T01:05:20.256Z,88.23
2022-11-12T01:07:53.164Z,88.92
2022-11-12T01:10:22.999Z,89.19
2022-11-12T01:12:50.044Z,88.57
2022-11-12T01:15:17.131Z,88.41
2022-11-12T01:17:44.114Z,89.20
2022-11-12T01:20:11.420Z,88.77
2022-11-12T01:22:38.510Z,90.08
2022-11-12T01:25:06.254Z,89.76
2022-11-12T01:27:34.750Z,89.86
2022-11-12T01:30:01.752Z,89.43
2022-11-12T01:32:28.937Z,89.30
2022-11-12T01:34:55.961Z,89.30
2022-11-12T01:37:22.927Z,89.50
2022-11-12T01:39:49.909Z,90.00
2022-11-12T01:42:16.920Z,90.33
2022-11-12T01:44:46.435Z,90.25
2022-11-12T01:47:30.917Z,89.61
2022-11-12T01:50:33.837Z,89.72
2022-11-12T01:53:11.298Z,89.27
2022-11-12T01:55:38.749Z,89.13
2022-11-12T01:58:16.291Z,89.54
2022-11-12T02:00:44.691Z,89.07
2022-11-12T02:03:25.137Z,88.77
2022-11-12T02:06:09.421Z,88.08
2022-11-12T02:08:38.834Z,88.64
2022-11-12T02:11:18.556Z,88.77
2022-11-12T02:14:04.876Z,88.72
2022-11-12T02:16:42.265Z,88.32
2022-11-12T02:19:16.012Z,88.33
2022-11-12T02:21:43.992Z,88.02
2022-11-12T02:24:13.494Z,88.85
2022-11-12T02:26:52.528Z,88.34
2022-11-12T02:29:19.654Z,88.43
2022-11-12T02:31:46.698Z,88.72
2022-11-12T02:34:13.766Z,88.33
2022-11-12T02:36:40.742Z,88.38
2022-11-12T02:39:07.963Z,88.84
2022-11-12T02:41:35.019Z,88.31
2022-11-12T02:44:02.089Z,88.46
2022-11-12T02:46:29.057Z,88.72
2022-11-12T02:48:56.077Z,89.61
2022-11-12T02:51:23.046Z,88.76
2022-11-12T02:53:50.041Z,89.53
2022-11-12T02:56:17.163Z,89.21
2022-11-12T02:58:44.148Z,89.40
2022-11-12T03:01:11.179Z,88.99
2022-11-12T03:03:38.190Z,88.18
2022-11-12T03:06:05.923Z,88.76
2022-11-12T03:08:32.868Z,89.08
2022-11-12T03:11:05.469Z,88.60
2022-11-12T03:13:32.465Z,88.16
2022-11-12T03:16:03.320Z,89.80
2022-11-12T03:18:30.906Z,89.11
2022-11-12T03:20:57.880Z,89.00
2022-11-12T03:23:27.300Z,88.50
2022-11-12T03:25:54.900Z,88.71
2022-11-12T03:28:22.079Z,88.70
2022-11-12T03:30:49.393Z,88.91
2022-11-12T03:33:17.197Z,88.30
2022-11-12T03:35:44.748Z,88.43
2022-11-12T03:38:11.758Z,88.24
2022-11-12T03:40:38.757Z,86.94
2022-11-12T03:43:05.835Z,88.78
2022-11-12T03:45:32.958Z,87.18
2022-11-12T03:48:00.133Z,89.66
2022-11-12T03:50:30.592Z,88.65
2022-11-12T03:53:00.110Z,90.03
2022-11-12T03:55:29.504Z,90.06
2022-11-12T03:57:59.021Z,90.06
2022-11-12T04:00:29.023Z,90.51
2022-11-12T04:02:59.468Z,90.50
2022-11-12T04:05:45.976Z,90.09
2022-11-12T04:08:35.453Z,89.94
2022-11-12T04:11:13.585Z,90.75
2022-11-12T04:13:47.414Z,90.56
2022-11-12T04:16:40.622Z,90.40
2022-11-12T04:19:29.873Z,90.69
2022-11-12T04:22:10.057Z,90.53
2022-11-12T04:24:59.804Z,90.36
2022-11-12T04:27:31.539Z,90.14
2022-11-12T04:30:18.765Z,90.17
2022-11-12T04:32:54.640Z,90.20
2022-11-12T04:35:25.984Z,90.22
2022-11-12T04:37:53.920Z,89.88
2022-11-12T04:40:43.648Z,90.74
2022-11-12T04:43:35.158Z,90.37
2022-11-12T04:46:04.554Z,90.25
2022-11-12T04:48:31.703Z,90.52
2022-11-12T04:51:24.998Z,89.01
2022-11-12T04:53:52.098Z,89.85
2022-11-12T04:56:19.048Z,90.07
2022-11-12T04:58:46.051Z,89.61
2022-11-12T05:01:13.096Z,91.42
2022-11-12T05:03:40.073Z,90.77
2022-11-12T05:06:28.132Z,91.55
2022-11-12T05:08:55.588Z,90.60
2022-11-12T05:11:22.847Z,91.15
2022-11-12T05:13:49.795Z,89.83
2022-11-12T05:16:16.797Z,90.34
2022-11-12T05:18:43.753Z,90.17
2022-11-12T05:21:29.471Z,90.02
2022-11-12T05:23:56.417Z,89.05
2022-11-12T05:26:23.373Z,89.77
2022-11-12T05:28:50.484Z,89.29
2022-11-12T05:31:17.590Z,89.40
2022-11-12T05:33:44.540Z,88.35
2022-11-12T05:36:11.660Z,90.41
2022-11-12T05:38:39.198Z,90.97
2022-11-12T05:41:06.295Z,90.88
2022-11-12T05:43:33.430Z,92.27
2022-11-12T05:46:00.418Z,91.39
2022-11-12T05:48:27.734Z,91.94
2022-11-12T05:53:43.391Z,89.82
2022-11-12T05:56:11.757Z,91.38
2022-11-12T05:58:38.984Z,91.03
2022-11-12T06:01:06.206Z,91.27
2022-11-12T06:03:33.673Z,91.88
2022-11-12T06:06:00.747Z,91.43
2022-11-12T06:08:28.709Z,91.02
2022-11-12T06:10:56.598Z,90.95
2022-11-12T06:13:25.660Z,90.95
2022-11-12T06:15:55.154Z,91.57
2022-11-12T06:18:24.564Z,91.17
2022-11-12T06:21:10.560Z,90.96
2022-11-12T06:23:37.547Z,89.73
2022-11-12T06:26:04.859Z,90.61
2022-11-12T06:28:31.948Z,89.49
2022-11-12T06:30:58.960Z,90.51
2022-11-12T06:33:25.951Z,90.74
2022-11-12T06:36:05.864Z,90.84
2022-11-12T06:38:36.375Z,91.10
2022-11-12T06:41:04.941Z,90.48
2022-11-12T06:43:34.345Z,90.97
2022-11-12T06:46:15.494Z,91.47
2022-11-12T06:48:43.042Z,92.22
2022-11-12T06:51:21.025Z,91.99
2022-11-12T06:53:49.288Z,91.34
2022-11-12T06:56:16.394Z,91.55
2022-11-12T06:58:43.750Z,90.97
2022-11-12T07:01:17.373Z,90.84
2022-11-12T07:03:45.118Z,90.88
2022-11-12T07:06:18.490Z,90.74
2022-11-12T07:08:49.707Z,89.94
2022-11-12T07:11:19.477Z,90.62
2022-11-12T07:13:47.733Z,90.19
2022-11-12T07:16:18.745Z,89.99
2022-11-12T07:18:49.654Z,90.23
2022-11-12T07:21:20.683Z,90.49
2022-11-12T07:23:48.209Z,89.88
2022-11-12T07:26:30.074Z,90.52
2022-11-12T07:28:57.024Z,89.85
2022-11-12T07:31:25.785Z,89.49
2022-11-12T07:33:53.519Z,89.28
2022-11-12T07:36:21.778Z,90.67
2022-11-12T07:38:54.499Z,90.46
2022-11-12T07:41:25.028Z,90.72
2022-11-12T07:43:53.714Z,90.05
2022-11-12T07:46:28.184Z,90.58
2022-11-12T07:48:56.157Z,91.06
2022-11-12T07:51:26.876Z,91.02
2022-11-12T07:53:59.497Z,90.19
2022-11-12T07:56:29.063Z,89.32
2022-11-12T07:58:56.161Z,88.95
2022-11-12T08:01:36.227Z,89.61
2022-11-12T08:04:07.905Z,88.43
2022-11-12T08:06:36.056Z,88.74
2022-11-12T08:09:07.216Z,87.84
2022-11-12T08:11:35.435Z,87.06
2022-11-12T08:14:03.948Z,86.71
2022-11-12T08:16:31.364Z,86.15
2022-11-12T08:18:58.488Z,86.55
2022-11-12T08:21:26.116Z,86.68
2022-11-12T08:23:53.418Z,86.36
2022-11-12T08:26:21.914Z,85.25
2022-11-12T08:28:49.014Z,85.42
2022-11-12T08:31:21.472Z,86.56
2022-11-12T08:33:49.110Z,85.89
2022-11-12T08:36:18.152Z,86.19
2022-11-12T08:38:45.973Z,85.93
2022-11-12T08:41:15.237Z,85.32
2022-11-12T08:43:43.148Z,85.66
2022-11-12T08:46:10.363Z,86.18
2022-11-12T08:48:40.621Z,85.34
2022-11-12T08:51:08.382Z,85.41
2022-11-12T08:53:35.689Z,84.98
2022-11-12T08:56:03.083Z,83.97
2022-11-12T08:58:30.365Z,84.39
2022-11-12T09:01:03.719Z,84.68
2022-11-12T09:03:30.976Z,83.93
2022-11-12T09:05:58.105Z,83.70
2022-11-12T09:08:26.085Z,84.67
2022-11-12T09:10:53.370Z,84.19
2022-11-12T09:13:30.388Z,84.83
2022-11-12T09:16:07.419Z,83.26
2022-11-12T09:18:34.859Z,83.73
2022-11-12T09:21:12.370Z,83.24
2022-11-12T09:23:39.826Z,83.56
2022-11-12T09:26:07.133Z,82.49
2022-11-12T09:28:34.495Z,82.23
2022-11-12T09:31:02.557Z,82.99
2022-11-12T09:33:37.891Z,83.51
2022-11-12T09:36:05.601Z,84.06
2022-11-12T09:38:32.817Z,82.77
2022-11-12T09:41:34.579Z,83.57
2022-11-12T09:44:21.993Z,82.93
2022-11-12T09:47:21.511Z,83.44
2022-11-12T09:50:34.619Z,83.75
2022-11-12T09:53:17.653Z,83.00
2022-11-12T09:55:50.101Z,83.31
2022-11-12T09:58:19.508Z,83.12
2022-11-12T10:01:03.444Z,83.16
2022-11-12T10:04:42.177Z,84.51
2022-11-12T10:07:46.520Z,83.85
2022-11-12T10:10:21.015Z,84.11
2022-11-12T10:13:21.838Z,84.60
2022-11-12T10:16:39.496Z,84.08
2022-11-12T10:19:52.895Z,83.93
2022-11-12T10:23:07.441Z,83.02
2022-11-12T10:25:35.449Z,83.31
2022-11-12T10:28:38.729Z,82.50
2022-11-12T10:31:19.286Z,82.76
2022-11-12T10:33:46.691Z,82.81
2022-11-12T10:36:28.728Z,81.99
2022-11-12T10:38:56.250Z,82.35
2022-11-12T10:41:34.847Z,82.46
2022-11-12T10:44:06.567Z,82.00
2022-11-12T10:46:38.643Z,81.73
2022-11-12T10:49:16.405Z,80.73
2022-11-12T10:51:57.845Z,81.38
2022-11-12T10:54:27.395Z,81.51
2022-11-12T10:56:55.633Z,81.24
2022-11-12T10:59:25.426Z,81.18
2022-11-12T11:02:00.891Z,81.02
2022-11-12T11:04:38.128Z,80.71
2022-11-12T11:07:21.583Z,79.91
2022-11-12T11:10:00.768Z,79.51
2022-11-12T11:12:32.187Z,79.72
2022-11-12T11:15:27.905Z,79.78
2022-11-12T11:17:55.962Z,80.00
2022-11-12T11:20:51.889Z,79.99
2022-11-12T11:23:30.557Z,79.67
2022-11-12T11:26:10.094Z,79.30
2022-11-12T11:29:26.144Z,78.88
2022-11-12T11:32:33.257Z,78.02
2022-11-12T11:35:24.299Z,77.78
2022-11-12T11:38:16.171Z,77.86
2022-11-12T11:41:19.707Z,77.72
2022-11-12T11:44:46.413Z,78.70
2022-11-12T11:47:50.385Z,78.31
2022-11-12T11:50:23.306Z,77.21
2022-11-12T11:53:24.158Z,77.73
2022-11-12T11:56:11.692Z,77.35
2022-11-12T11:59:21.496Z,76.68
2022-11-12T12:02:19.533Z,75.93
2022-11-12T12:05:41.717Z,75.71
2022-11-12T12:08:25.647Z,76.08
2022-11-12T12:11:29.387Z,75.26
2022-11-12T12:14:05.039Z,74.93
2022-11-12T12:17:18.201Z,75.01
2022-11-12T12:20:26.536Z,75.14
2022-11-12T12:23:37.520Z,74.98
2022-11-12T12:27:17.219Z,74.26
2022-11-12T12:30:01.876Z,75.11
2022-11-12T12:32:58.074Z,74.50
2022-11-12T12:36:31.312Z,73.39
2022-11-12T12:39:19.014Z,74.23
2022-11-12T12:42:24.078Z,74.34
2022-11-12T12:45:35.941Z,74.22
2022-11-12T12:48:13.094Z,73.68
2022-11-12T12:50:42.364Z,73.62
2022-11-12T12:53:27.313Z,74.49
2022-11-12T12:56:02.720Z,73.51
2022-11-12T12:58:44.700Z,73.24
2022-11-12T13:01:23.086Z,74.63
2022-11-12T13:04:07.006Z,73.04
2022-11-12T13:06:46.167Z,73.69
2022-11-12T13:09:13.043Z,73.53
2022-11-12T13:12:01.504Z,73.22
2022-11-12T13:14:37.141Z,73.58
2022-11-12T13:17:11.898Z,73.32
2022-11-12T13:20:03.129Z,73.00
2022-11-12T13:22:50.965Z,73.48
2022-11-12T13:25:17.831Z,73.15
2022-11-12T13:27:45.150Z,73.39
2022-11-12T13:30:17.770Z,72.86
2022-11-12T13:32:47.601Z,73.59
2022-11-12T13:35:23.567Z,73.77
2022-11-12T13:38:10.393Z,73.24
2022-11-12T13:41:08.446Z,72.63
2022-11-12T13:43:44.311Z,73.38
2022-11-12T13:46:33.091Z,73.86
2022-11-12T13:49:10.335Z,74.56
2022-11-12T13:51:51.928Z,75.23
2022-11-12T13:54:37.454Z,74.61
2022-11-12T13:57:30.112Z,74.23
2022-11-12T14:00:26.050Z,74.38
2022-11-12T14:03:04.150Z,74.20
2022-11-12T14:05:36.082Z,74.66
2022-11-12T14:08:45.905Z,74.51
2022-11-12T14:12:02.287Z,75.14
2022-11-12T14:14:53.586Z,75.13
2022-11-12T14:18:14.328Z,75.46
2022-11-12T14:20:42.366Z,76.56
2022-11-12T14:23:25.126Z,76.73
2022-11-12T14:25:57.236Z,77.17
2022-11-12T14:28:32.835Z,76.47
2022-11-12T14:31:03.088Z,78.20
2022-11-12T14:33:33.157Z,77.59
2022-11-12T14:36:14.583Z,78.56
2022-11-12T14:38:55.210Z,77.99
2022-11-12T14:41:34.998Z,78.87
2022-11-12T14:44:13.024Z,80.27
2022-11-12T14:46:54.667Z,80.19
2022-11-12T14:49:44.673Z,80.87
2022-11-12T14:52:27.949Z,82.73
2022-11-12T14:55:03.874Z,83.33
2022-11-12T14:57:32.290Z,84.18
2022-11-12T14:59:59.324Z,85.12
2022-11-12T15:02:49.911Z,85.56
2022-11-12T15:05:23.647Z,85.20
2022-11-12T15:08:10.082Z,87.13
2022-11-12T15:10:44.876Z,86.65
2022-11-12T15:13:20.935Z,85.93
2022-11-12T15:16:07.309Z,86.65
2022-11-12T15:18:35.586Z,87.36
2022-11-12T15:21:28.341Z,87.21
2022-11-12T15:24:33.187Z,87.48
2022-11-12T15:27:37.104Z,87.51
2022-11-12T15:30:25.649Z,87.63
2022-11-12T15:33:11.088Z,87.60
2022-11-12T15:35:49.535Z,88.10
2022-11-12T15:38:35.915Z,88.07
2022-11-12T15:41:04.511Z,89.04
2022-11-12T15:43:36.862Z,88.36
2022-11-12T15:46:03.867Z,88.82
2022-11-12T15:48:30.854Z,88.99
2022-11-12T15:50:58.769Z,89.43
2022-11-12T15:53:26.146Z,89.92
2022-11-12T15:55:53.852Z,88.93
2022-11-12T15:58:33.774Z,89.34
2022-11-12T16:01:01.295Z,90.20
2022-11-12T16:03:31.735Z,90.02
2022-11-12T16:06:03.961Z,90.05
2022-11-12T16:08:34.332Z,89.58
2022-11-12T16:11:01.474Z,89.21
2022-11-12T16:13:37.668Z,89.71
2022-11-12T16:16:08.258Z,90.06
2022-11-12T16:18:35.380Z,88.78
2022-11-12T16:21:02.460Z,88.40
2022-11-12T16:23:29.931Z,88.83
2022-11-12T16:25:57.332Z,88.39
2022-11-12T16:28:24.394Z,89.14
2022-11-12T16:30:51.485Z,90.73
2022-11-12T16:33:18.640Z,90.23
2022-11-12T16:35:45.734Z,90.05
2022-11-12T16:38:17.805Z,90.44
2022-11-12T16:40:45.662Z,90.64
2022-11-12T16:43:12.632Z,90.92
2022-11-12T16:45:42.937Z,90.73
2022-11-12T16:48:20.620Z,90.90
2022-11-12T16:50:48.750Z,90.46
2022-11-12T16:53:15.819Z,89.38
2022-11-12T16:55:43.019Z,90.01
2022-11-12T16:58:19.179Z,89.84
2022-11-12T17:00:49.923Z,90.78
2022-11-12T17:03:17.002Z,90.60
2022-11-12T17:05:44.168Z,91.60
2022-11-12T17:08:11.227Z,91.97
2022-11-12T17:10:38.576Z,92.77
2022-11-12T17:13:05.627Z,93.14
2022-11-12T17:15:32.570Z,93.18
2022-11-12T17:17:59.768Z,92.39
2022-11-12T17:20:27.017Z,92.20
2022-11-12T17:22:54.017Z,92.46
2022-11-12T17:25:20.981Z,92.16
2022-11-12T17:27:47.954Z,92.88
2022-11-12T17:30:15.082Z,93.10
2022-11-12T17:32:42.083Z,93.03
2022-11-12T17:35:09.157Z,93.04
2022-11-12T17:37:36.196Z,93.08
2022-11-12T17:40:04.201Z,93.31
2022-11-12T17:42:31.167Z,93.18
2022-11-12T17:44:58.187Z,93.44
2022-11-12T17:47:25.137Z,93.90
2022-11-12T17:49:52.091Z,94.15
2022-11-12T17:52:19.329Z,93.02
2022-11-12T17:54:46.470Z,92.51
2022-11-12T17:57:13.851Z,92.62
2022-11-12T17:59:40.814Z,92.89
2022-11-12T18:02:12.261Z,93.37
2022-11-12T18:04:39.357Z,93.59
2022-11-12T18:07:06.387Z,93.83
2022-11-12T18:09:33.418Z,94.53
2022-11-12T18:12:01.001Z,94.23
2022-11-12T18:14:28.012Z,92.83
2022-11-12T18:16:56.829Z,93.73
2022-11-12T18:19:23.814Z,94.33
2022-11-12T18:21:52.755Z,93.18
2022-11-12T18:24:19.772Z,93.52
2022-11-12T18:26:46.733Z,93.54
2022-11-12T18:29:13.849Z,93.00
2022-11-12T18:31:41.095Z,92.71
2022-11-12T18:34:14.863Z,91.21
2022-11-12T18:36:41.871Z,93.68
2022-11-12T18:39:09.007Z,93.43
2022-11-12T18:41:36.023Z,93.30
2022-11-12T18:44:03.243Z,91.29
2022-11-12T18:46:30.208Z,92.13
2022-11-12T18:48:57.383Z,92.09
2022-11-12T18:51:24.431Z,92.65
2022-11-12T18:53:51.443Z,92.69
2022-11-12T18:56:21.911Z,91.24
2022-11-12T18:58:49.150Z,92.63
2022-11-12T19:01:21.307Z,92.11
2022-11-12T19:03:52.847Z,92.54
2022-11-12T19:06:20.953Z,92.98
2022-11-12T19:08:48.401Z,91.44
2022-11-12T19:11:18.979Z,91.81
2022-11-12T19:13:50.807Z,91.42
2022-11-12T19:16:22.692Z,91.00
2022-11-12T19:18:51.433Z,92.33
2022-11-12T19:21:25.624Z,91.93
2022-11-12T19:23:57.125Z,92.02
2022-11-12T19:26:24.809Z,91.57
2022-11-12T19:28:52.110Z,93.22
2022-11-12T19:31:26.068Z,93.89
2022-11-12T19:33:53.125Z,94.15
2022-11-12T19:36:24.980Z,92.86
2022-11-12T19:39:02.321Z,92.19
2022-11-12T19:41:29.421Z,92.06
2022-11-12T19:43:56.395Z,92.32
2022-11-12T19:46:23.369Z,92.46
2022-11-12T19:48:51.120Z,92.31
2022-11-12T19:51:18.114Z,93.00
2022-11-12T19:53:45.133Z,91.96
2022-11-12T19:56:17.153Z,90.80
2022-11-12T19:58:48.762Z,92.02
2022-11-12T20:01:18.782Z,90.47
2022-11-12T20:03:46.172Z,93.46
2022-11-12T20:06:20.633Z,93.71
2022-11-12T20:08:47.874Z,93.42
2022-11-12T20:11:18.854Z,91.79
2022-11-12T20:13:46.589Z,93.70
2022-11-12T20:16:22.243Z,93.24
2022-11-12T20:18:55.530Z,92.21
2022-11-12T20:21:24.013Z,91.55
2022-11-12T20:23:51.007Z,92.69
2022-11-12T20:26:17.997Z,93.85
2022-11-12T20:28:45.122Z,92.66
2022-11-12T20:31:16.976Z,91.88
2022-11-12T20:33:43.948Z,92.82
2022-11-12T20:36:15.719Z,92.95
2022-11-12T20:38:44.891Z,91.33
2022-11-12T20:41:15.648Z,93.83
2022-11-12T20:43:43.354Z,93.29
2022-11-12T20:46:14.493Z,92.37
2022-11-12T20:48:43.508Z,93.09
2022-11-12T20:51:24.626Z,92.04
2022-11-12T20:53:58.834Z,94.02
2022-11-12T20:56:28.828Z,93.42
2022-11-12T20:58:59.775Z,93.39
2022-11-12T21:01:29.975Z,94.31
2022-11-12T21:03:58.392Z,93.13
2022-11-12T21:06:28.823Z,93.44
2022-11-12T21:08:59.788Z,94.05
2022-11-12T21:11:27.064Z,92.39
2022-11-12T21:13:54.183Z,92.84
2022-11-12T21:16:21.314Z,93.12
2022-11-12T21:18:48.338Z,94.52
2022-11-12T21:21:20.894Z,93.39
2022-11-12T21:23:51.716Z,93.98
2022-11-12T21:26:23.224Z,93.72
2022-11-12T21:28:59.512Z,93.46
2022-11-12T21:31:30.860Z,92.77
2022-11-12T21:34:07.047Z,94.00
2022-11-12T21:36:35.399Z,93.37
2022-11-12T21:39:04.635Z,93.42
2022-11-12T21:41:32.111Z,93.48
2022-11-12T21:43:59.476Z,93.79
2022-11-12T21:46:30.438Z,93.38
2022-11-12T21:48:57.633Z,93.44
2022-11-12T21:51:31.630Z,93.49
2022-11-12T21:54:04.323Z,93.05
2022-11-12T21:56:33.972Z,93.54
2022-11-12T21:59:03.873Z,92.76
2022-11-12T22:01:34.330Z,93.16
2022-11-12T22:04:07.229Z,92.54
2022-11-12T22:06:38.411Z,93.06
2022-11-12T22:09:05.779Z,92.29
2022-11-12T22:11:32.912Z,93.22
2022-11-12T22:13:59.909Z,92.79
2022-11-12T22:16:29.511Z,92.74
2022-11-12T22:18:58.954Z,93.24
2022-11-12T22:21:39.484Z,92.81
2022-11-12T22:24:09.266Z,91.97
2022-11-12T22:26:36.796Z,92.07
2022-11-12T22:29:04.558Z,92.31
2022-11-12T22:31:33.137Z,91.87
2022-11-12T22:34:02.494Z,92.17
2022-11-12T22:36:31.433Z,92.07
2022-11-12T22:38:58.804Z,92.04
2022-11-12T22:41:32.117Z,92.12
2022-11-12T22:44:02.605Z,92.59
2022-11-12T22:46:34.294Z,92.55
2022-11-12T22:49:03.293Z,91.94
2022-11-12T22:51:33.473Z,92.90
2022-11-12T22:54:05.324Z,92.90
2022-11-12T22:56:33.325Z,92.52
2022-11-12T22:59:03.439Z,92.19
2022-11-12T23:01:35.660Z,91.77
2022-11-12T23:04:07.343Z,92.48
2022-11-12T23:06:34.872Z,92.25
2022-11-12T23:09:02.307Z,92.95
2022-11-12T23:11:29.597Z,92.63
2022-11-12T23:13:57.263Z,92.89
2022-11-12T23:16:33.036Z,92.93
2022-11-12T23:19:00.317Z,93.34
2022-11-12T23:21:29.870Z,92.84
2022-11-12T23:23:58.715Z,92.34
2022-11-12T23:26:31.000Z,92.24
2022-11-12T23:28:58.225Z,92.59
2022-11-12T23:31:29.841Z,92.02
2022-11-12T23:34:00.060Z,91.94
2022-11-12T23:36:28.471Z,93.06
2022-11-12T23:38:57.120Z,92.28
2022-11-12T23:41:26.705Z,92.22
2022-11-12T23:43:55.933Z,92.26
2022-11-12T23:46:23.258Z,91.58
2022-11-12T23:48:50.658Z,90.58
2022-11-12T23:51:21.024Z,91.15
2022-11-12T23:53:49.123Z,92.06
2022-11-12T23:56:19.682Z,91.26
2022-11-12T23:58:47.456Z,91.91
